Greenfield, Missouri
Current Conditions -  °F | °C
As of 7:52 AM on Tuesday 21 Oct 2014 (Local Time) from KSGF Reporting Station
Haze Haze  
Wind Chill: 47°   Ceiling: Unl
Heat Index: 47°   Visibility: 5mi
Dew Point: 44°   Wind: 0mph
Humidity: 90%   Direction: NA
Pressure: 30.11"   Gusts: NA
Location:  37.42°N, 93.84°W
Report Text: KSGF 211252Z 00000KT 5SM BR CLR 08/07 A3011 RMK AO2 SLP196 T00830067
Loading
Personal Weather Stations






























Interactive Weather Map New forecast layout! Learn more

10-Day Weather Forecast

Advertisements
Track Severe Weather on mobile